Placerville, CA (95667)

7:13 PM PDT en Agosto 29, 2014 (GMT -0700)
Ladera Lane | Change Station
CLOSE
Current Station
Estación meteorológica personal
Location: Placerville, CA
Altura: 2090 ft
Estaciones meteorológicas cercanas

Alt 2090 ft 38.74 °N, 120.78 °W | Updated 22 seconds ago

Clear
Despejado
82.8 ° F
Sensación térmica 82 ° F
N
0.0
Viento Variable Viento desde OSO
Gusts 0.0 mph

Hoy
Alta -- | Baja -- ° F
--% Posibilidad de precipitaciones
Ayer
Alta -- | Baja -- ° F
Precip. -- pul
6:29 AM 7:37 PM
Creciente, 18% visible
Presión 29.98 pul
Visibilidad 10.0 Millas
Nubes Despejado
Índice de calor 82 ° F
Punto de rocío 52 ° F
Humedad 35%
Precipitaciones 0.00 pul
Espesor de la nieve No disponible.
UV 0 de una escala de 12
Polen 8.60 de una escala de 12
Ozono Moderada
Flu Activity No disponible.
METAR KPVF 300155Z AUTO 00000KT 10SM CLR 27/09 A2998 RMK AO1

More Conditions Fewer Conditions

Presión 29.98 pul
Visibilidad 10.0 Millas
Nubes Despejado
Índice de calor 82 ° F
Punto de rocío 52 ° F
Humedad 35%
Precipitaciones 0.00 pul
Espesor de la nieve No disponible.
UV 0 de una escala de 12
Polen 8.60 de una escala de 12
Ozono Moderada
Flu Activity No disponible.
METAR KPVF 300155Z AUTO 00000KT 10SM CLR 27/09 A2998 RMK AO1

More Conditions Fewer Conditions

10-Day Weather Forecast

Almanac

Astronomía

Aug. 29, 2014 Salida Puesta
Hora real 6:29 AM PDT 7:37 PM PDT
Crepúsculo civil 6:02 AM PDT 8:05 PM PDT
Crepúsculo náutico 5:29 AM PDT 8:37 PM PDT
Crepúsculo astronómico 4:55 AM PDT 9:11 PM PDT
Luna 10:21 AM PDT (8/29) 9:41 PM PDT (8/29)
Horas de luz 14h 02m
Horas de luz
13h 08m
Tomorrow will be 2m 23s shorter.
Creciente, 18% of the Moon is Illuminated
Hoy
Creciente
Sep 2
Cuarto creciente
Sep 8
Luna llena
Sep 15
Cuarto menguante
Sep 24
Nueva

Extremos de hoy

Máximos del estado Bajos del estado

Community

WunderPhotos

Upload Photos

1,748,405 ¡fotos cargadas!

Nearby

Calidad del aire

  Calidad del aire Índice AQ Contaminante
Ayer Nociva para grupos sensibles
OZONE
Real Moderada
OZONE
Viernes Moderada
OZONE
Sábado Moderada
OZONE
Domingo Moderada
OZONE
Lunes Moderada
OZONE
Martes Moderada
OZONE
Miércoles Moderada
OZONE

Grosos de nieve

Estación Profundido Altura
CSS Lab 0 in 6900 ft
Hagan's Meadow 0 in 8000 ft
Monitor Pass 0 in 8350 ft
Summit Meadow 0 in 9122 ft
Leavitt Meadows 0 in 7200 ft

Actividad de terremotos

Ciudad Distance Mag. Tiempo y dato
Napa, California 91 Millas 2.6 11:57 AM PDT
2014-08-27
Magnitud mínima muestra es 2,5.

Temperaturas de aguas costeras

Lugar Temperatura
Sin partes meteorológicos de las estaciones

Estaciones meteorológicas cercanas